Time;durP1;ratioP1;P1;durP2;ratioP2;P2;SDS_P1;SDS_P2;PMS_P1;PMS_P2;Temp;Humidity;BMP_temperature;BMP_pressure;BME280_temperature;BME280_humidity;BME280_pressure;Samples;Min_cycle;Max_cycle;Signal;HPM_P1;HPM_P2
2023/08/27 00:02:19;;;;;;;0.30;0.30;;;12.10;32.20;;;;;;5059608;28;20059;-74
2023/08/27 00:04:45;;;;;;;0.55;0.50;;;12.10;34.20;;;;;;5059227;28;20705;-74
2023/08/27 00:07:12;;;;;;;0.32;0.32;;;12.10;30.70;;;;;;5058877;28;20064;-74
2023/08/27 00:09:39;;;;;;;0.40;0.40;;;12.10;25.80;;;;;;5060738;28;20049;-74
2023/08/27 00:12:06;;;;;;;0.30;0.30;;;12.00;26.00;;;;;;5058324;28;20492;-74
2023/08/27 00:14:33;;;;;;;0.52;0.52;;;12.00;29.80;;;;;;5060554;28;20135;-74
2023/08/27 00:17:03;;;;;;;0.38;0.38;;;12.00;31.40;;;;;;5059019;28;20105;-74
2023/08/27 00:19:29;;;;;;;0.70;0.60;;;12.00;33.00;;;;;;5059688;28;20117;-74
2023/08/27 00:21:57;;;;;;;0.90;0.30;;;12.00;36.40;;;;;;5059961;28;20094;-73
2023/08/27 00:24:24;;;;;;;0.30;0.30;;;12.00;37.50;;;;;;5058767;28;20474;-74
2023/08/27 00:26:52;;;;;;;0.40;0.40;;;12.00;39.20;;;;;;5057838;28;20052;-73
2023/08/27 00:29:19;;;;;;;0.30;0.30;;;12.00;53.20;;;;;;5059037;28;20045;-73
2023/08/27 00:31:46;;;;;;;0.63;0.60;;;12.00;60.10;;;;;;5056486;28;20052;-74
2023/08/27 00:34:13;;;;;;;0.40;0.40;;;12.10;65.60;;;;;;5058848;28;20127;-73
2023/08/27 00:36:41;;;;;;;0.40;0.40;;;12.00;59.10;;;;;;5059112;28;20052;-74
2023/08/27 00:39:08;;;;;;;0.40;0.40;;;12.10;63.50;;;;;;5058682;28;20052;-74
2023/08/27 00:41:34;;;;;;;0.52;0.52;;;12.00;60.60;;;;;;5056934;28;20045;-73
2023/08/27 00:44:01;;;;;;;0.30;0.30;;;12.10;62.00;;;;;;5042001;28;20056;-74
2023/08/27 00:46:28;;;;;;;0.52;0.43;;;12.00;61.40;;;;;;5059195;28;20067;-74
2023/08/27 00:48:55;;;;;;;0.20;0.20;;;12.00;59.90;;;;;;5058908;28;20052;-74
2023/08/27 00:51:21;;;;;;;0.80;0.50;;;12.00;52.10;;;;;;5025086;28;20612;-74
2023/08/27 00:53:48;;;;;;;0.50;0.50;;;12.00;59.20;;;;;;5056783;28;20049;-74
2023/08/27 00:56:15;;;;;;;0.57;0.50;;;12.00;61.40;;;;;;5055546;28;20087;-74
2023/08/27 00:58:42;;;;;;;0.43;0.43;;;12.10;59.70;;;;;;5055025;28;20072;-74
2023/08/27 01:01:08;;;;;;;0.55;0.40;;;12.10;61.50;;;;;;5051026;28;20049;-74
2023/08/27 01:03:35;;;;;;;0.32;0.32;;;12.10;56.20;;;;;;5062236;28;20155;-74
2023/08/27 01:06:02;;;;;;;0.68;0.57;;;12.10;40.00;;;;;;5055071;28;20058;-74
2023/08/27 01:09:12;;;;;;;0.32;0.32;;;12.00;49.90;;;;;;5024701;28;20190;-75
2023/08/27 01:11:51;;;;;;;0.43;0.43;;;12.00;47.00;;;;;;5057624;28;20084;-74
2023/08/27 01:14:18;;;;;;;0.60;0.40;;;12.10;52.60;;;;;;5052898;28;20118;-74
2023/08/27 01:16:45;;;;;;;0.43;0.43;;;12.10;58.10;;;;;;5045182;28;20074;-74
2023/08/27 01:19:14;;;;;;;0.50;0.50;;;12.20;63.00;;;;;;5055375;28;20049;-74
2023/08/27 01:21:41;;;;;;;0.52;0.47;;;12.20;65.00;;;;;;5016008;28;20128;-75
2023/08/27 01:24:08;;;;;;;0.55;0.40;;;12.20;71.30;;;;;;5062317;28;20082;-74
2023/08/27 01:26:42;;;;;;;0.40;0.40;;;12.30;72.30;;;;;;5052394;28;20105;-73
2023/08/27 01:29:16;;;;;;;0.45;0.38;;;12.30;69.70;;;;;;5020922;28;20048;-74
2023/08/27 01:32:19;;;;;;;0.52;0.50;;;12.30;71.00;;;;;;5091899;27;20109;-73
2023/08/27 01:34:46;;;;;;;0.75;0.70;;;12.30;68.10;;;;;;5031100;28;20133;-74
2023/08/27 01:37:13;;;;;;;0.63;0.40;;;12.30;67.20;;;;;;5064593;28;20036;-73
2023/08/27 01:39:42;;;;;;;0.57;0.43;;;12.40;70.00;;;;;;5054956;28;20056;-73
2023/08/27 01:42:09;;;;;;;0.30;0.30;;;12.40;70.20;;;;;;5049058;28;20051;-73
2023/08/27 01:44:36;;;;;;;0.98;0.52;;;12.40;72.10;;;;;;5060237;28;20044;-73
2023/08/27 01:47:04;;;;;;;0.60;0.40;;;12.50;72.60;;;;;;5054290;28;20103;-74
2023/08/27 01:49:31;;;;;;;0.57;0.47;;;12.50;68.60;;;;;;5101098;27;20040;-73
2023/08/27 01:51:58;;;;;;;0.80;0.60;;;12.50;70.40;;;;;;5065849;28;20071;-73
2023/08/27 01:54:25;;;;;;;0.55;0.50;;;12.60;66.70;;;;;;5085823;28;20475;-73
2023/08/27 01:56:51;;;;;;;0.88;0.60;;;12.50;64.10;;;;;;5051619;28;20424;-73
2023/08/27 01:59:18;;;;;;;0.60;0.60;;;12.60;63.90;;;;;;5057230;28;20349;-73
2023/08/27 02:01:45;;;;;;;1.02;0.60;;;12.60;58.90;;;;;;5063729;28;20107;-73
2023/08/27 02:04:12;;;;;;;0.73;0.60;;;12.60;63.90;;;;;;5063694;28;20071;-73
2023/08/27 02:06:39;;;;;;;1.08;0.60;;;12.60;57.70;;;;;;5052791;28;20084;-73
2023/08/27 02:09:06;;;;;;;0.98;0.73;;;12.60;59.10;;;;;;5038839;28;20045;-73
2023/08/27 02:11:32;;;;;;;0.80;0.60;;;12.60;58.70;;;;;;5083991;28;20056;-73
2023/08/27 02:13:59;;;;;;;0.82;0.60;;;12.70;58.70;;;;;;5094263;28;20048;-73
2023/08/27 02:16:26;;;;;;;0.82;0.60;;;12.70;57.30;;;;;;5063074;28;20056;-73
2023/08/27 02:18:53;;;;;;;0.77;0.65;;;12.70;53.50;;;;;;5022510;28;20111;-73
2023/08/27 02:21:19;;;;;;;0.75;0.57;;;12.70;47.90;;;;;;5054610;28;20613;-74
2023/08/27 02:23:46;;;;;;;1.40;0.60;;;12.60;51.90;;;;;;5065331;28;20060;-73
2023/08/27 02:26:13;;;;;;;1.13;0.68;;;12.70;50.80;;;;;;5063185;28;20040;-73
2023/08/27 02:28:40;;;;;;;1.17;0.80;;;12.70;46.80;;;;;;5073250;28;20048;-74
2023/08/27 02:31:08;;;;;;;1.17;0.90;;;12.60;43.00;;;;;;5065144;28;20047;-73
2023/08/27 02:33:35;;;;;;;0.68;0.60;;;12.60;47.80;;;;;;5065215;28;20045;-73
2023/08/27 02:36:02;;;;;;;0.88;0.70;;;12.60;49.30;;;;;;5063180;28;20048;-73
2023/08/27 02:38:29;;;;;;;0.80;0.80;;;12.60;51.10;;;;;;5064521;28;20048;-74
2023/08/27 02:40:56;;;;;;;0.90;0.65;;;12.60;46.10;;;;;;5062272;28;20551;-73
2023/08/27 02:43:23;;;;;;;0.80;0.80;;;12.60;49.30;;;;;;5054846;28;20052;-73
2023/08/27 02:45:50;;;;;;;0.98;0.70;;;12.50;49.80;;;;;;5062849;28;20060;-73
2023/08/27 02:48:17;;;;;;;0.75;0.75;;;12.50;46.70;;;;;;5063997;28;20056;-74
2023/08/27 02:50:44;;;;;;;0.80;0.70;;;12.50;43.90;;;;;;5047291;28;20048;-73
2023/08/27 02:53:10;;;;;;;0.55;0.50;;;12.40;47.00;;;;;;5063685;28;20052;-74
2023/08/27 02:55:37;;;;;;;0.70;0.50;;;12.40;51.40;;;;;;5063407;28;20428;-73
2023/08/27 02:58:04;;;;;;;0.85;0.70;;;12.40;48.80;;;;;;5060632;28;20503;-74
2023/08/27 03:00:31;;;;;;;0.82;0.60;;;12.30;48.20;;;;;;5063402;28;20044;-73
2023/08/27 03:02:58;;;;;;;0.93;0.82;;;12.30;47.50;;;;;;5064007;28;20044;-73
2023/08/27 03:05:26;;;;;;;0.50;0.50;;;12.30;54.20;;;;;;5064698;28;20166;-73
2023/08/27 03:07:52;;;;;;;0.60;0.60;;;12.20;55.00;;;;;;5046170;28;20044;-73
2023/08/27 03:10:20;;;;;;;0.60;0.60;;;12.20;59.80;;;;;;5064294;28;20070;-73
2023/08/27 03:12:47;;;;;;;0.63;0.52;;;12.20;61.10;;;;;;5062457;28;20135;-73
2023/08/27 03:15:13;;;;;;;0.52;0.50;;;12.10;57.50;;;;;;5046334;28;20111;-73
2023/08/27 03:17:40;;;;;;;0.55;0.55;;;12.10;60.00;;;;;;5063499;28;20561;-73
2023/08/27 03:20:08;;;;;;;0.57;0.50;;;12.10;63.00;;;;;;5060316;28;20045;-73
2023/08/27 03:22:34;;;;;;;1.10;0.65;;;12.10;65.90;;;;;;5075703;28;20041;-73
2023/08/27 03:25:01;;;;;;;0.85;0.70;;;12.00;68.40;;;;;;5091299;28;20391;-73
2023/08/27 03:27:29;;;;;;;0.70;0.70;;;12.00;70.10;;;;;;5061001;28;20044;-73
2023/08/27 03:29:55;;;;;;;0.50;0.40;;;12.00;68.10;;;;;;5059538;28;20045;-73
2023/08/27 03:32:22;;;;;;;0.50;0.50;;;12.00;69.20;;;;;;5063405;28;20067;-73
2023/08/27 03:34:49;;;;;;;0.50;0.50;;;12.00;70.10;;;;;;5042886;28;20573;-73
2023/08/27 03:37:16;;;;;;;0.60;0.50;;;11.90;72.40;;;;;;5062853;28;20182;-73
2023/08/27 03:39:43;;;;;;;0.75;0.70;;;11.90;73.80;;;;;;5062908;28;20055;-73
2023/08/27 03:42:09;;;;;;;0.88;0.63;;;11.90;82.20;;;;;;5044206;28;20048;-73
2023/08/27 03:44:36;;;;;;;0.77;0.73;;;11.90;87.10;;;;;;5064445;28;20079;-73
2023/08/27 03:47:06;;;;;;;0.60;0.50;;;11.90;86.60;;;;;;5061310;28;20113;-73
2023/08/27 03:49:33;;;;;;;0.50;0.47;;;11.80;86.00;;;;;;5062295;28;20052;-73
2023/08/27 03:51:59;;;;;;;0.60;0.60;;;11.80;85.40;;;;;;5061871;28;20110;-73
2023/08/27 03:54:27;;;;;;;0.50;0.50;;;11.80;86.00;;;;;;5063950;28;20374;-73
2023/08/27 03:56:54;;;;;;;0.40;0.40;;;11.80;86.70;;;;;;5044367;28;20055;-73
2023/08/27 03:59:21;;;;;;;0.57;0.50;;;11.80;86.30;;;;;;5062415;28;20059;-73
2023/08/27 04:01:49;;;;;;;1.33;0.60;;;11.70;85.70;;;;;;5062869;28;20080;-73
2023/08/27 04:04:15;;;;;;;0.38;0.38;;;11.70;90.80;;;;;;5068164;28;20645;-73
2023/08/27 04:06:43;;;;;;;0.40;0.40;;;11.70;92.30;;;;;;5063273;28;20036;-73
2023/08/27 04:09:09;;;;;;;0.55;0.50;;;11.70;92.50;;;;;;5062801;28;20056;-73
2023/08/27 04:11:36;;;;;;;0.85;0.60;;;11.70;91.00;;;;;;5060659;28;20075;-73
2023/08/27 04:14:04;;;;;;;0.40;0.40;;;11.70;91.60;;;;;;5063892;28;20094;-73
2023/08/27 04:16:30;;;;;;;0.50;0.50;;;11.60;92.10;;;;;;5062901;28;20052;-73
2023/08/27 04:18:57;;;;;;;0.50;0.50;;;11.60;91.90;;;;;;5063961;28;20139;-73
2023/08/27 04:21:24;;;;;;;0.60;0.60;;;11.60;91.40;;;;;;5063511;28;20424;-73
2023/08/27 04:23:51;;;;;;;0.95;0.50;;;11.60;91.50;;;;;;5045850;28;20060;-73
2023/08/27 04:26:18;;;;;;;0.60;0.60;;;11.60;90.60;;;;;;5059951;28;20777;-73
2023/08/27 04:28:45;;;;;;;0.40;0.40;;;11.60;91.40;;;;;;5062358;28;20217;-73
2023/08/27 04:31:11;;;;;;;0.60;0.60;;;11.60;90.90;;;;;;5063260;28;20052;-73
2023/08/27 04:33:38;;;;;;;0.45;0.43;;;11.50;93.30;;;;;;5029682;28;20051;-73
2023/08/27 04:36:05;;;;;;;0.40;0.40;;;11.50;93.50;;;;;;5066015;28;20059;-73
2023/08/27 04:38:32;;;;;;;0.55;0.55;;;11.50;92.70;;;;;;5064109;28;20492;-73
2023/08/27 04:40:59;;;;;;;0.82;0.50;;;11.50;91.90;;;;;;5066007;28;20110;-73
2023/08/27 04:43:25;;;;;;;0.50;0.50;;;11.50;92.80;;;;;;5048533;28;20384;-73
2023/08/27 04:45:53;;;;;;;0.30;0.30;;;11.40;91.50;;;;;;5066559;28;20060;-73
2023/08/27 04:48:20;;;;;;;0.40;0.40;;;11.40;92.40;;;;;;5065806;28;20076;-73
2023/08/27 04:50:46;;;;;;;0.45;0.45;;;11.40;92.00;;;;;;5064876;28;20078;-73
2023/08/27 04:53:13;;;;;;;2.78;0.80;;;11.40;93.00;;;;;;5064504;28;20044;-73
2023/08/27 04:55:40;;;;;;;0.50;0.50;;;11.40;93.70;;;;;;5047908;28;20052;-73
2023/08/27 04:58:08;;;;;;;0.40;0.40;;;11.40;94.10;;;;;;5046528;28;20153;-73
2023/08/27 05:00:35;;;;;;;0.63;0.63;;;11.40;96.30;;;;;;5065213;28;20444;-73
2023/08/27 05:03:02;;;;;;;0.50;0.50;;;11.30;95.60;;;;;;5061014;28;20059;-73
2023/08/27 05:05:29;;;;;;;0.40;0.40;;;11.30;95.60;;;;;;5059422;28;20167;-73
2023/08/27 05:07:56;;;;;;;0.45;0.45;;;11.30;96.30;;;;;;5059048;28;20048;-73
2023/08/27 05:10:23;;;;;;;0.43;0.43;;;11.30;96.30;;;;;;5062085;28;20503;-74
2023/08/27 05:12:50;;;;;;;0.50;0.50;;;11.40;96.90;;;;;;5059247;28;20051;-74
2023/08/27 05:15:20;;;;;;;0.30;0.30;;;11.40;99.90;;;;;;5062827;28;20442;-74
2023/08/27 05:17:48;;;;;;;0.47;0.40;;;11.30;99.90;;;;;;5063175;28;20049;-74
2023/08/27 05:20:15;;;;;;;0.20;0.20;;;11.30;99.90;;;;;;5061578;28;20427;-74
2023/08/27 05:22:42;;;;;;;0.40;0.40;;;11.30;99.90;;;;;;5043621;28;20048;-73
2023/08/27 05:25:09;;;;;;;0.50;0.50;;;11.40;99.90;;;;;;5040771;28;20048;-73
2023/08/27 05:27:43;;;;;;;0.52;0.40;;;11.40;99.90;;;;;;5059237;28;20072;-73
2023/08/27 05:30:12;;;;;;;0.73;0.60;;;11.40;99.90;;;;;;5061338;28;20102;-73
2023/08/27 05:32:40;;;;;;;0.52;0.50;;;11.40;99.90;;;;;;5060414;28;20055;-73
2023/08/27 05:35:07;;;;;;;0.40;0.40;;;11.40;99.90;;;;;;5049082;28;20464;-73
2023/08/27 05:37:34;;;;;;;0.50;0.47;;;11.40;99.90;;;;;;5058771;28;20129;-74
2023/08/27 05:40:02;;;;;;;0.50;0.40;;;11.40;99.90;;;;;;5050239;28;20118;-74
2023/08/27 05:42:29;;;;;;;0.40;0.40;;;11.40;99.90;;;;;;5047555;28;20052;-75
2023/08/27 05:44:56;;;;;;;0.50;0.50;;;11.50;99.90;;;;;;5060647;28;20351;-75
2023/08/27 05:47:23;;;;;;;0.30;0.30;;;11.50;99.90;;;;;;5060376;28;20771;-74
2023/08/27 05:49:50;;;;;;;0.40;0.40;;;11.50;99.90;;;;;;5058910;28;20403;-74
2023/08/27 05:52:16;;;;;;;0.60;0.47;;;11.50;99.90;;;;;;5061133;28;20048;-75
2023/08/27 05:54:43;;;;;;;0.90;0.50;;;11.60;99.90;;;;;;5058271;28;20036;-75
2023/08/27 05:57:10;;;;;;;0.60;0.50;;;11.60;99.90;;;;;;5059158;28;20052;-75
2023/08/27 05:59:37;;;;;;;0.43;0.30;;;11.50;99.90;;;;;;5057684;28;20075;-75
2023/08/27 06:02:04;;;;;;;0.60;0.43;;;11.60;99.90;;;;;;5051902;28;20053;-75
2023/08/27 06:04:31;;;;;;;0.40;0.35;;;11.60;99.90;;;;;;5061945;28;20139;-75
2023/08/27 06:06:58;;;;;;;0.35;0.35;;;11.60;99.90;;;;;;5044972;28;20049;-75
2023/08/27 06:09:25;;;;;;;0.57;0.57;;;11.60;97.90;;;;;;5063787;28;20055;-75
2023/08/27 06:11:52;;;;;;;0.90;0.50;;;11.70;97.60;;;;;;5062147;28;20048;-75
2023/08/27 06:14:19;;;;;;;0.40;0.40;;;11.70;97.80;;;;;;5063087;28;20546;-74
2023/08/27 06:16:46;;;;;;;0.52;0.47;;;11.70;99.30;;;;;;5062992;28;20635;-74
2023/08/27 06:19:13;;;;;;;0.43;0.43;;;11.70;97.60;;;;;;5093414;28;20067;-75
2023/08/27 06:21:40;;;;;;;0.50;0.40;;;11.70;98.50;;;;;;5039302;28;20056;-74
2023/08/27 06:24:07;;;;;;;0.32;0.32;;;11.80;96.50;;;;;;5058113;28;20054;-75
2023/08/27 06:26:34;;;;;;;0.60;0.60;;;11.80;96.70;;;;;;5058581;28;20064;-75
2023/08/27 06:29:01;;;;;;;0.80;0.50;;;11.80;95.90;;;;;;5060926;28;20258;-75
2023/08/27 06:31:28;;;;;;;0.50;0.43;;;11.90;95.60;;;;;;5043786;28;20094;-75
2023/08/27 06:33:55;;;;;;;0.50;0.50;;;11.90;96.70;;;;;;5059027;28;20060;-72
2023/08/27 06:36:22;;;;;;;0.77;0.50;;;12.00;93.00;;;;;;5060187;28;20037;-74
2023/08/27 06:38:49;;;;;;;0.73;0.60;;;12.00;91.20;;;;;;5060398;28;20170;-74
2023/08/27 06:41:15;;;;;;;1.10;0.60;;;12.00;91.00;;;;;;5059826;28;20044;-73
2023/08/27 06:43:42;;;;;;;0.47;0.45;;;12.00;88.40;;;;;;5043255;28;20074;-74
2023/08/27 06:46:12;;;;;;;0.80;0.60;;;12.00;89.20;;;;;;5056563;28;20052;-73
2023/08/27 06:48:39;;;;;;;0.30;0.30;;;12.00;82.60;;;;;;5025653;28;20044;-74
2023/08/27 06:51:06;;;;;;;0.95;0.65;;;12.10;82.80;;;;;;5022931;28;20455;-73
2023/08/27 06:53:33;;;;;;;0.43;0.43;;;12.10;89.10;;;;;;5058529;28;20136;-73
2023/08/27 06:56:00;;;;;;;0.70;0.60;;;12.20;78.00;;;;;;5058523;28;20122;-74
2023/08/27 06:58:29;;;;;;;0.65;0.60;;;12.20;74.70;;;;;;5053719;28;20056;-73
2023/08/27 07:00:56;;;;;;;0.40;0.40;;;12.20;53.10;;;;;;5078934;28;20066;-76
2023/08/27 07:03:23;;;;;;;0.30;0.30;;;12.20;46.80;;;;;;5057612;28;20060;-74
2023/08/27 07:05:50;;;;;;;0.70;0.60;;;12.20;47.70;;;;;;5047346;28;20528;-73
2023/08/27 07:08:19;;;;;;;0.60;0.52;;;12.20;53.20;;;;;;5052928;28;20566;-74
2023/08/27 07:10:48;;;;;;;0.65;0.50;;;12.30;44.10;;;;;;5038596;28;20048;-75
2023/08/27 07:13:15;;;;;;;0.40;0.40;;;12.30;41.70;;;;;;5055406;28;20055;-74
2023/08/27 07:15:42;;;;;;;0.55;0.50;;;12.40;32.00;;;;;;5056246;28;20074;-74
2023/08/27 07:18:09;;;;;;;0.60;0.50;;;12.40;20.20;;;;;;5058589;28;20045;-74
2023/08/27 07:20:36;;;;;;;0.50;0.50;;;12.50;25.40;;;;;;5025446;28;20147;-74
2023/08/27 07:23:04;;;;;;;0.68;0.60;;;12.50;19.50;;;;;;5056825;28;20056;-75
2023/08/27 07:25:33;;;;;;;0.50;0.50;;;12.50;16.60;;;;;;5052307;28;20433;-75
2023/08/27 07:28:00;;;;;;;0.80;0.70;;;12.60;10.70;;;;;;5038334;28;20049;-74
2023/08/27 07:30:27;;;;;;;0.70;0.60;;;12.70;7.50;;;;;;5056206;28;20049;-76
2023/08/27 07:32:54;;;;;;;0.90;0.57;;;12.70;7.80;;;;;;5036473;28;20072;-76
2023/08/27 07:35:22;;;;;;;0.60;0.50;;;12.80;1.00;;;;;;5046708;28;20608;-76
2023/08/27 07:37:49;;;;;;;0.63;0.60;;;12.80;1.00;;;;;;5055524;28;20060;-76
2023/08/27 07:40:16;;;;;;;1.08;0.70;;;12.90;1.00;;;;;;5061820;28;20056;-75
2023/08/27 07:42:43;;;;;;;0.77;0.60;;;13.00;1.00;;;;;;5056556;28;20045;-74
2023/08/27 07:45:12;;;;;;;0.63;0.50;;;13.00;1.00;;;;;;5058488;28;20052;-75
2023/08/27 07:47:39;;;;;;;0.65;0.65;;;13.00;1.00;;;;;;5022750;28;20050;-74
2023/08/27 07:50:06;;;;;;;0.55;0.55;;;13.10;1.00;;;;;;5057339;28;20052;-75
2023/08/27 07:52:33;;;;;;;0.60;0.60;;;13.10;1.00;;;;;;5057353;28;20067;-75
2023/08/27 07:55:00;;;;;;;1.00;0.82;;;13.20;1.00;;;;;;5050531;28;20076;-75
2023/08/27 07:57:27;;;;;;;1.00;0.75;;;13.20;1.00;;;;;;5048947;28;20087;-75
2023/08/27 07:59:54;;;;;;;0.65;0.65;;;13.20;1.00;;;;;;5052637;28;20568;-74
2023/08/27 08:02:21;;;;;;;1.13;0.60;;;13.30;1.00;;;;;;5052613;28;20063;-75
2023/08/27 08:04:48;;;;;;;0.70;0.60;;;13.40;1.00;;;;;;5051007;28;20048;-75
2023/08/27 08:07:15;;;;;;;0.60;0.57;;;13.50;1.00;;;;;;5042384;28;20049;-76
2023/08/27 08:09:41;;;;;;;0.50;0.50;;;13.50;99.90;;;;;;5054032;28;20550;-75
2023/08/27 08:12:08;;;;;;;0.80;0.68;;;13.60;99.90;;;;;;5047345;28;20045;-76
2023/08/27 08:14:35;;;;;;;1.95;0.70;;;13.60;99.90;;;;;;5057974;28;20097;-75
2023/08/27 08:17:02;;;;;;;0.40;0.40;;;13.70;99.90;;;;;;5073037;28;20048;-75
2023/08/27 08:19:29;;;;;;;0.60;0.60;;;13.80;99.90;;;;;;5059193;28;20045;-75
2023/08/27 08:21:56;;;;;;;0.75;0.60;;;13.90;99.90;;;;;;5062755;28;20140;-75
2023/08/27 08:24:22;;;;;;;0.68;0.57;;;14.00;99.90;;;;;;5060565;28;20044;-76
2023/08/27 08:26:52;;;;;;;0.45;0.40;;;14.10;99.90;;;;;;5059686;28;20052;-75
2023/08/27 08:29:20;;;;;;;0.45;0.43;;;14.20;99.90;;;;;;5056131;28;20109;-76
2023/08/27 08:31:47;;;;;;;0.93;0.40;;;14.30;99.90;;;;;;5066168;28;20074;-76
2023/08/27 08:34:14;;;;;;;0.40;0.40;;;14.40;99.90;;;;;;5053861;28;20265;-75
2023/08/27 08:36:41;;;;;;;0.50;0.50;;;14.50;99.90;;;;;;5039993;28;20445;-76
2023/08/27 08:39:08;;;;;;;0.52;0.43;;;14.60;99.90;;;;;;5055019;28;20902;-76
2023/08/27 08:41:37;;;;;;;0.47;0.40;;;14.60;99.90;;;;;;5053449;28;20040;-76
2023/08/27 08:44:14;;;;;;;0.60;0.60;;;14.70;1.00;;;;;;5038784;28;20353;-75
2023/08/27 08:46:41;;;;;;;0.85;0.70;;;14.70;1.00;;;;;;5050953;28;20156;-75
2023/08/27 08:49:12;;;;;;;0.40;0.40;;;14.70;3.00;;;;;;5035822;28;20490;-76
2023/08/27 08:51:39;;;;;;;1.02;0.80;;;14.80;1.00;;;;;;5018237;28;20774;-73
2023/08/27 08:54:06;;;;;;;1.20;0.80;;;14.90;1.00;;;;;;5040786;28;20110;-73
2023/08/27 08:56:37;;;;;;;1.05;0.70;;;14.90;1.00;;;;;;5038635;28;20049;-74
2023/08/27 08:59:05;;;;;;;0.82;0.52;;;15.00;1.00;;;;;;5054712;28;20137;-73
2023/08/27 09:01:32;;;;;;;1.10;0.60;;;15.00;1.00;;;;;;5061000;28;20067;-73
2023/08/27 09:03:59;;;;;;;0.75;0.47;;;15.10;1.00;;;;;;5054625;28;20207;-74
2023/08/27 09:06:26;;;;;;;1.00;0.70;;;15.20;1.00;;;;;;5034350;28;20052;-73
2023/08/27 09:08:53;;;;;;;1.23;0.73;;;15.20;1.00;;;;;;5058710;28;20491;-73
2023/08/27 09:11:20;;;;;;;1.30;0.80;;;15.40;99.90;;;;;;5057706;28;20833;-73
2023/08/27 09:13:47;;;;;;;0.60;0.60;;;15.40;99.90;;;;;;5051683;28;20832;-73
2023/08/27 09:16:14;;;;;;;0.80;0.80;;;15.40;99.90;;;;;;5059426;28;20088;-72
2023/08/27 09:18:40;;;;;;;0.95;0.60;;;15.50;99.90;;;;;;5056031;28;20598;-72
2023/08/27 09:21:07;;;;;;;0.50;0.50;;;15.60;99.90;;;;;;5054853;28;20048;-72
2023/08/27 09:23:37;;;;;;;0.52;0.45;;;15.70;99.90;;;;;;5056116;28;20087;-72
2023/08/27 09:26:05;;;;;;;0.68;0.50;;;15.80;99.90;;;;;;5053803;28;20044;-73
2023/08/27 09:28:35;;;;;;;0.88;0.65;;;15.90;1.00;;;;;;5045015;28;20049;-75
2023/08/27 09:31:01;;;;;;;1.27;0.60;;;16.00;1.00;;;;;;5058088;28;20053;-73
2023/08/27 09:33:40;;;;;;;0.50;0.50;;;16.10;99.90;;;;;;5056710;28;20183;-74
2023/08/27 09:36:07;;;;;;;0.82;0.50;;;16.20;99.90;;;;;;5038556;28;20138;-73
2023/08/27 09:38:34;;;;;;;0.50;0.50;;;16.30;99.90;;;;;;5036128;28;20479;-73
2023/08/27 09:41:17;;;;;;;0.77;0.60;;;16.30;94.10;;;;;;5056478;28;20048;-72
2023/08/27 09:43:53;;;;;;;0.55;0.55;;;16.40;99.90;;;;;;5085276;28;20124;-73
2023/08/27 09:46:20;;;;;;;0.85;0.52;;;16.50;99.90;;;;;;5042863;28;20107;-73
2023/08/27 09:49:00;;;;;;;0.65;0.60;;;16.60;99.90;;;;;;5048886;28;20530;-72
2023/08/27 09:51:29;;;;;;;0.30;0.30;;;16.60;86.30;;;;;;5034463;28;20511;-72
2023/08/27 09:53:55;;;;;;;0.90;0.60;;;16.80;1.00;;;;;;5038291;28;20049;-72
2023/08/27 09:56:26;;;;;;;1.35;0.68;;;16.90;31.90;;;;;;5061416;28;20397;-73
2023/08/27 09:58:53;;;;;;;0.60;0.55;;;17.00;1.00;;;;;;5048771;28;20078;-72
2023/08/27 10:01:25;;;;;;;1.65;0.57;;;17.10;99.90;;;;;;5080587;28;20048;-72
2023/08/27 10:03:53;;;;;;;0.60;0.60;;;17.30;1.00;;;;;;5052860;28;20058;-72
2023/08/27 10:06:20;;;;;;;0.73;0.65;;;17.50;1.00;;;;;;5014777;28;20506;-72
2023/08/27 10:08:48;;;;;;;1.10;0.70;;;17.70;99.90;;;;;;5063281;28;20060;-73
2023/08/27 10:11:16;;;;;;;1.30;0.95;;;17.80;99.90;;;;;;5052110;28;20665;-81
2023/08/27 10:13:43;;;;;;;0.68;0.57;;;17.80;1.00;;;;;;5070751;28;20071;-81
2023/08/27 10:16:13;;;;;;;0.77;0.70;;;17.80;1.00;;;;;;5056970;28;20121;-82
2023/08/27 10:18:43;;;;;;;0.60;0.50;;;18.00;99.90;;;;;;5018621;28;20048;-81
2023/08/27 10:21:10;;;;;;;0.73;0.52;;;18.00;92.80;;;;;;5054443;28;20064;-83
2023/08/27 10:23:38;;;;;;;0.30;0.30;;;18.10;69.40;;;;;;5038568;28;20048;-80
2023/08/27 10:26:06;;;;;;;0.35;0.35;;;18.20;71.60;;;;;;5037007;28;20048;-80
2023/08/27 10:28:33;;;;;;;0.50;0.50;;;18.40;32.30;;;;;;5053502;28;20044;-82
2023/08/27 10:31:01;;;;;;;0.57;0.45;;;18.40;16.80;;;;;;5053461;28;20555;-80
2023/08/27 10:33:28;;;;;;;0.68;0.50;;;18.40;12.60;;;;;;5032056;28;20052;-80
2023/08/27 10:35:55;;;;;;;0.50;0.50;;;18.40;9.30;;;;;;5049384;28;20778;-79
2023/08/27 10:38:25;;;;;;;0.55;0.40;;;18.40;12.30;;;;;;5047573;28;20432;-79
2023/08/27 10:40:52;;;;;;;0.50;0.45;;;18.60;11.00;;;;;;5044604;28;20052;-80
2023/08/27 10:43:20;;;;;;;0.75;0.50;;;18.70;5.60;;;;;;5058560;28;20056;-79
2023/08/27 10:45:48;;;;;;;0.45;0.40;;;18.90;4.60;;;;;;5048570;28;20585;-80
2023/08/27 10:48:18;;;;;;;0.43;0.43;;;19.10;2.70;;;;;;5050591;28;20567;-80
2023/08/27 10:50:55;;;;;;;0.77;0.50;;;19.10;1.00;;;;;;5047428;28;20056;-80
2023/08/27 10:53:22;;;;;;;1.27;0.60;;;19.00;1.00;;;;;;5044787;28;20090;-80
2023/08/27 10:55:51;;;;;;;0.55;0.50;;;19.00;1.00;;;;;;5050665;28;20565;-79
2023/08/27 10:58:24;;;;;;;0.40;0.40;;;19.10;1.00;;;;;;5041770;28;20097;-80
2023/08/27 11:01:13;;;;;;;0.82;0.50;;;19.30;1.00;;;;;;5030881;28;20509;-81
2023/08/27 11:03:59;;;;;;;1.17;0.70;;;19.50;1.00;;;;;;5049828;28;20055;-81
2023/08/27 11:06:37;;;;;;;0.70;0.40;;;19.40;1.00;;;;;;5045921;28;20052;-79
2023/08/27 11:09:31;;;;;;;0.47;0.40;;;19.20;1.00;;;;;;5077581;28;20505;-79
2023/08/27 11:12:03;;;;;;;0.47;0.45;;;19.20;1.00;;;;;;5045764;28;20109;-77
2023/08/27 11:14:36;;;;;;;0.52;0.50;;;19.50;1.00;;;;;;5052369;28;20036;-79
2023/08/27 11:17:03;;;;;;;0.85;0.50;;;19.90;1.00;;;;;;5050088;28;20052;-79
2023/08/27 11:19:35;;;;;;;1.15;0.60;;;20.20;1.00;;;;;;5050331;28;20056;-79
2023/08/27 11:22:13;;;;;;;0.52;0.45;;;20.00;1.00;;;;;;5029292;28;20052;-78
2023/08/27 11:24:53;;;;;;;0.40;0.40;;;20.20;1.00;;;;;;5050540;28;20044;-79
2023/08/27 11:27:21;;;;;;;0.30;0.30;;;20.50;1.00;;;;;;5050470;28;20055;-78
2023/08/27 11:29:52;;;;;;;0.60;0.40;;;20.60;1.00;;;;;;5058757;28;20052;-78
2023/08/27 11:32:20;;;;;;;0.65;0.50;;;20.50;1.00;;;;;;5059243;28;20052;-79
2023/08/27 11:34:49;;;;;;;0.57;0.45;;;20.40;1.00;;;;;;5052096;28;20567;-73
2023/08/27 11:37:17;;;;;;;2.75;0.80;;;20.40;1.00;;;;;;5032518;28;20052;-72
2023/08/27 11:39:45;;;;;;;0.95;0.50;;;20.40;1.00;;;;;;5039407;28;20106;-72
2023/08/27 11:42:13;;;;;;;0.22;0.22;;;20.20;1.00;;;;;;5052095;28;20044;-72
2023/08/27 11:44:52;;;;;;;1.00;0.30;;;20.60;1.00;;;;;;5052073;28;20681;-72
2023/08/27 11:47:20;;;;;;;0.40;0.40;;;20.70;1.00;;;;;;5049129;28;20056;-72
2023/08/27 11:49:48;;;;;;;0.35;0.32;;;20.40;1.00;;;;;;5051927;28;20156;-74
2023/08/27 11:52:15;;;;;;;0.70;0.40;;;20.40;1.00;;;;;;5050306;28;20040;-75
2023/08/27 11:54:46;;;;;;;1.95;0.70;;;20.20;1.00;;;;;;5054572;28;20120;-74
2023/08/27 11:57:14;;;;;;;0.47;0.43;;;20.70;1.00;;;;;;5034727;28;20541;-75
2023/08/27 11:59:42;;;;;;;0.28;0.28;;;21.00;1.00;;;;;;5034813;28;20279;-74
2023/08/27 12:02:11;;;;;;;0.40;0.40;;;21.00;1.00;;;;;;5077944;28;20103;-74
2023/08/27 12:04:39;;;;;;;0.88;0.52;;;21.00;1.00;;;;;;5016266;28;20067;-74
2023/08/27 12:07:06;;;;;;;0.80;0.50;;;21.10;1.00;;;;;;5050738;28;20074;-75
2023/08/27 12:09:33;;;;;;;0.47;0.40;;;21.30;1.00;;;;;;5053974;28;20143;-74
2023/08/27 12:12:03;;;;;;;0.40;0.40;;;21.50;1.00;;;;;;5047185;28;20043;-74
2023/08/27 12:14:30;;;;;;;0.40;0.40;;;21.50;1.00;;;;;;5051608;28;20040;-74
2023/08/27 12:17:07;;;;;;;0.63;0.40;;;21.40;1.00;;;;;;5054203;28;20060;-74
2023/08/27 12:19:36;;;;;;;0.40;0.40;;;21.30;1.00;;;;;;5050944;28;20123;-74
2023/08/27 12:22:03;;;;;;;1.23;0.60;;;21.20;1.00;;;;;;5055069;28;20052;-73
2023/08/27 12:24:43;;;;;;;0.50;0.50;;;21.10;1.00;;;;;;5052438;28;20072;-74
2023/08/27 12:27:20;;;;;;;0.93;0.65;;;21.10;1.00;;;;;;5054734;28;20139;-74
2023/08/27 12:29:51;;;;;;;0.80;0.60;;;21.10;1.00;;;;;;5055498;28;20056;-74
2023/08/27 12:32:21;;;;;;;0.90;0.50;;;21.00;1.00;;;;;;5049654;28;20559;-74
2023/08/27 12:34:51;;;;;;;0.60;0.38;;;20.90;1.00;;;;;;5053612;28;20102;-75
2023/08/27 12:37:19;;;;;;;0.90;0.52;;;20.70;1.00;;;;;;5037368;28;20262;-74
2023/08/27 12:39:46;;;;;;;1.13;0.50;;;20.50;1.00;;;;;;5037810;28;20059;-74
2023/08/27 12:42:16;;;;;;;1.08;0.55;;;20.40;1.00;;;;;;5028624;28;20048;-74
2023/08/27 12:44:44;;;;;;;0.57;0.50;;;20.20;1.00;;;;;;5017854;28;20045;-74
2023/08/27 12:47:14;;;;;;;0.55;0.50;;;20.10;1.00;;;;;;5036283;28;20064;-75
2023/08/27 12:49:42;;;;;;;0.90;0.63;;;20.20;1.00;;;;;;5050864;28;20165;-75
2023/08/27 12:52:09;;;;;;;0.50;0.50;;;20.20;1.00;;;;;;5054465;28;20519;-75
2023/08/27 12:54:36;;;;;;;0.68;0.52;;;20.60;1.00;;;;;;5054250;28;20055;-75
2023/08/27 12:57:03;;;;;;;0.80;0.50;;;20.80;1.00;;;;;;5054875;28;20044;-75